Mito, Japan
Current Conditions -  °F | °C
As of 3:20 AM on Monday 22 Dec 2014 (Local Time) from RJAH Reporting Station
Rain Showers Rain Showers  
Wind Chill: 37°   Ceiling: 4000
Heat Index: 37°   Visibility: 6mi
Dew Point: 34°   Wind: 2mph
Humidity: 87%   Direction: 280°W
Pressure: 29.74"   Gusts: NA
Location:  36.38°N, 140.47°E
Report Text: RJAH 211820Z 28002KT 9999 -SHRA FEW025 BKN040 BKN070 03/01 Q1007 RMK 1CU025 6SC040 7AC070 A2975
Loading
Personal Weather Stations






























Interactive Weather Map New forecast layout! Learn more

10-Day Weather Forecast

Advertisements
Track Severe Weather on mobile